sensor_id;sensor_type;location;lat;lon;timestamp;temperature;humidity
51655;DHT22;37732;53.106;7.030;2023-04-02T00:01:49;4.10;99.90
51655;DHT22;37732;53.106;7.030;2023-04-02T00:04:20;4.00;99.90
51655;DHT22;37732;53.106;7.030;2023-04-02T00:06:52;4.50;99.90
51655;DHT22;37732;53.106;7.030;2023-04-02T00:09:30;4.00;99.90
51655;DHT22;37732;53.106;7.030;2023-04-02T00:11:57;3.90;99.90
51655;DHT22;37732;53.106;7.030;2023-04-02T00:14:30;3.90;99.90
51655;DHT22;37732;53.106;7.030;2023-04-02T00:17:00;3.80;99.90
51655;DHT22;37732;53.106;7.030;2023-04-02T00:20:04;3.70;99.90
51655;DHT22;37732;53.106;7.030;2023-04-02T00:22:31;3.60;99.90
51655;DHT22;37732;53.106;7.030;2023-04-02T00:25:02;3.60;99.90
51655;DHT22;37732;53.106;7.030;2023-04-02T00:27:30;3.50;99.90
51655;DHT22;37732;53.106;7.030;2023-04-02T00:29:57;3.40;99.90
51655;DHT22;37732;53.106;7.030;2023-04-02T00:32:29;3.40;99.90
51655;DHT22;37732;53.106;7.030;2023-04-02T00:34:56;3.40;99.90
51655;DHT22;37732;53.106;7.030;2023-04-02T00:37:26;3.30;99.90
51655;DHT22;37732;53.106;7.030;2023-04-02T00:40:25;3.30;99.90
51655;DHT22;37732;53.106;7.030;2023-04-02T00:42:54;3.20;99.90
51655;DHT22;37732;53.106;7.030;2023-04-02T00:45:32;3.20;99.90
51655;DHT22;37732;53.106;7.030;2023-04-02T00:51:07;3.10;99.90
51655;DHT22;37732;53.106;7.030;2023-04-02T00:53:34;3.00;99.90
51655;DHT22;37732;53.106;7.030;2023-04-02T00:56:00;3.00;99.90
51655;DHT22;37732;53.106;7.030;2023-04-02T00:58:35;3.00;99.90
51655;DHT22;37732;53.106;7.030;2023-04-02T01:26:03;2.50;99.90
51655;DHT22;37732;53.106;7.030;2023-04-02T01:35:25;2.40;99.90
51655;DHT22;37732;53.106;7.030;2023-04-02T01:38:33;2.30;99.90
51655;DHT22;37732;53.106;7.030;2023-04-02T01:45:07;2.30;99.90
51655;DHT22;37732;53.106;7.030;2023-04-02T01:48:02;2.30;99.90
51655;DHT22;37732;53.106;7.030;2023-04-02T02:07:30;2.20;99.90
51655;DHT22;37732;53.106;7.030;2023-04-02T02:17:30;2.00;99.90
51655;DHT22;37732;53.106;7.030;2023-04-02T02:20:39;1.90;99.90
51655;DHT22;37732;53.106;7.030;2023-04-02T02:23:48;1.90;99.90
51655;DHT22;37732;53.106;7.030;2023-04-02T02:26:48;1.90;99.90
51655;DHT22;37732;53.106;7.030;2023-04-02T02:51:29;1.60;99.90
51655;DHT22;37732;53.106;7.030;2023-04-02T02:58:08;1.60;99.90
51655;DHT22;37732;53.106;7.030;2023-04-02T03:01:38;1.60;99.90
51655;DHT22;37732;53.106;7.030;2023-04-02T03:08:02;1.50;99.90
51655;DHT22;37732;53.106;7.030;2023-04-02T03:43:41;1.30;99.90
51655;DHT22;37732;53.106;7.030;2023-04-02T03:53:26;1.20;99.90
51655;DHT22;37732;53.106;7.030;2023-04-02T04:14:14;1.10;99.90
51655;DHT22;37732;53.106;7.030;2023-04-02T04:43:18;1.00;99.90
51655;DHT22;37732;53.106;7.030;2023-04-02T04:53:14;1.00;99.90
51655;DHT22;37732;53.106;7.030;2023-04-02T05:02:53;1.00;99.90
51655;DHT22;37732;53.106;7.030;2023-04-02T05:06:23;1.00;99.90
51655;DHT22;37732;53.106;7.030;2023-04-02T05:16:00;0.90;99.90
51655;DHT22;37732;53.106;7.030;2023-04-02T05:33:50;0.80;99.90
51655;DHT22;37732;53.106;7.030;2023-04-02T05:36:51;0.80;99.90
51655;DHT22;37732;53.106;7.030;2023-04-02T05:39:54;0.80;99.90
51655;DHT22;37732;53.106;7.030;2023-04-02T05:43:01;0.80;99.90
51655;DHT22;37732;53.106;7.030;2023-04-02T05:59:23;1.00;99.90
51655;DHT22;37732;53.106;7.030;2023-04-02T06:20:19;1.20;99.90
51655;DHT22;37732;53.106;7.030;2023-04-02T06:30:32;2.00;99.90
51655;DHT22;37732;53.106;7.030;2023-04-02T06:33:45;2.10;99.90
51655;DHT22;37732;53.106;7.030;2023-04-02T06:36:27;2.10;99.90
51655;DHT22;37732;53.106;7.030;2023-04-02T06:38:56;3.50;99.90
51655;DHT22;37732;53.106;7.030;2023-04-02T06:41:23;3.10;99.90
51655;DHT22;37732;53.106;7.030;2023-04-02T06:44:13;2.40;99.90
51655;DHT22;37732;53.106;7.030;2023-04-02T06:46:44;2.50;99.90
51655;DHT22;37732;53.106;7.030;2023-04-02T06:49:20;2.70;99.90
51655;DHT22;37732;53.106;7.030;2023-04-02T06:51:49;3.30;99.90
51655;DHT22;37732;53.106;7.030;2023-04-02T06:54:17;3.10;99.90
51655;DHT22;37732;53.106;7.030;2023-04-02T06:56:52;2.90;99.90
51655;DHT22;37732;53.106;7.030;2023-04-02T06:59:18;3.00;99.90
51655;DHT22;37732;53.106;7.030;2023-04-02T07:04:17;3.30;99.90
51655;DHT22;37732;53.106;7.030;2023-04-02T07:06:44;3.40;99.90
51655;DHT22;37732;53.106;7.030;2023-04-02T07:09:11;3.60;99.90
51655;DHT22;37732;53.106;7.030;2023-04-02T07:11:37;4.10;99.90
51655;DHT22;37732;53.106;7.030;2023-04-02T07:14:03;3.80;99.90
51655;DHT22;37732;53.106;7.030;2023-04-02T07:16:31;3.80;99.90
51655;DHT22;37732;53.106;7.030;2023-04-02T07:18:58;3.80;99.90
51655;DHT22;37732;53.106;7.030;2023-04-02T07:21:25;3.90;99.90
51655;DHT22;37732;53.106;7.030;2023-04-02T07:23:52;4.00;99.90
51655;DHT22;37732;53.106;7.030;2023-04-02T07:26:20;4.00;99.90
51655;DHT22;37732;53.106;7.030;2023-04-02T07:28:46;4.10;99.90
51655;DHT22;37732;53.106;7.030;2023-04-02T07:31:18;3.90;99.90
51655;DHT22;37732;53.106;7.030;2023-04-02T07:33:44;4.40;99.90
51655;DHT22;37732;53.106;7.030;2023-04-02T07:36:18;4.10;99.90
51655;DHT22;37732;53.106;7.030;2023-04-02T07:38:45;4.20;99.90
51655;DHT22;37732;53.106;7.030;2023-04-02T07:41:11;4.40;99.90
51655;DHT22;37732;53.106;7.030;2023-04-02T07:43:37;4.60;99.90
51655;DHT22;37732;53.106;7.030;2023-04-02T07:46:04;4.60;99.90
51655;DHT22;37732;53.106;7.030;2023-04-02T07:48:30;4.70;99.90
51655;DHT22;37732;53.106;7.030;2023-04-02T07:50:56;4.80;99.90
51655;DHT22;37732;53.106;7.030;2023-04-02T07:55:55;4.70;99.90
51655;DHT22;37732;53.106;7.030;2023-04-02T07:58:21;4.60;99.90
51655;DHT22;37732;53.106;7.030;2023-04-02T08:00:46;4.70;99.90
51655;DHT22;37732;53.106;7.030;2023-04-02T08:03:12;4.80;99.90
51655;DHT22;37732;53.106;7.030;2023-04-02T08:05:38;4.90;99.90
51655;DHT22;37732;53.106;7.030;2023-04-02T08:08:04;5.20;99.90
51655;DHT22;37732;53.106;7.030;2023-04-02T08:10:30;5.00;99.90
51655;DHT22;37732;53.106;7.030;2023-04-02T08:12:56;5.50;99.90
51655;DHT22;37732;53.106;7.030;2023-04-02T08:15:21;5.60;99.90
51655;DHT22;37732;53.106;7.030;2023-04-02T08:17:47;5.40;99.90
51655;DHT22;37732;53.106;7.030;2023-04-02T08:20:19;6.10;99.90
51655;DHT22;37732;53.106;7.030;2023-04-02T08:22:48;5.80;99.90
51655;DHT22;37732;53.106;7.030;2023-04-02T08:25:15;6.00;99.90
51655;DHT22;37732;53.106;7.030;2023-04-02T08:27:41;6.00;99.90
51655;DHT22;37732;53.106;7.030;2023-04-02T08:30:09;6.10;99.90
51655;DHT22;37732;53.106;7.030;2023-04-02T08:32:36;6.20;99.90
51655;DHT22;37732;53.106;7.030;2023-04-02T08:35:06;6.20;99.90
51655;DHT22;37732;53.106;7.030;2023-04-02T08:37:31;6.30;99.90
51655;DHT22;37732;53.106;7.030;2023-04-02T08:39:57;6.20;99.90
51655;DHT22;37732;53.106;7.030;2023-04-02T08:42:33;6.00;99.90
51655;DHT22;37732;53.106;7.030;2023-04-02T08:47:54;6.00;99.90
51655;DHT22;37732;53.106;7.030;2023-04-02T08:50:28;6.20;99.90
51655;DHT22;37732;53.106;7.030;2023-04-02T08:52:58;6.40;99.90
51655;DHT22;37732;53.106;7.030;2023-04-02T08:55:37;6.60;99.90
51655;DHT22;37732;53.106;7.030;2023-04-02T09:00:56;6.90;99.90
51655;DHT22;37732;53.106;7.030;2023-04-02T09:05:51;7.20;99.90
51655;DHT22;37732;53.106;7.030;2023-04-02T09:08:22;7.20;99.90
51655;DHT22;37732;53.106;7.030;2023-04-02T09:11:08;7.30;99.90
51655;DHT22;37732;53.106;7.030;2023-04-02T09:13:42;7.40;99.90
51655;DHT22;37732;53.106;7.030;2023-04-02T09:16:16;7.60;99.90
51655;DHT22;37732;53.106;7.030;2023-04-02T09:18:43;7.60;99.90
51655;DHT22;37732;53.106;7.030;2023-04-02T09:23:57;7.50;99.90
51655;DHT22;37732;53.106;7.030;2023-04-02T09:26:28;7.50;99.90
51655;DHT22;37732;53.106;7.030;2023-04-02T09:29:22;7.60;99.90
51655;DHT22;37732;53.106;7.030;2023-04-02T09:31:58;7.60;99.90
51655;DHT22;37732;53.106;7.030;2023-04-02T09:34:30;7.70;99.90
51655;DHT22;37732;53.106;7.030;2023-04-02T09:37:13;7.80;99.90
51655;DHT22;37732;53.106;7.030;2023-04-02T09:39:39;7.70;99.90
51655;DHT22;37732;53.106;7.030;2023-04-02T09:42:07;7.80;99.90
51655;DHT22;37732;53.106;7.030;2023-04-02T09:44:33;7.90;99.90
51655;DHT22;37732;53.106;7.030;2023-04-02T09:49:32;8.30;99.90
51655;DHT22;37732;53.106;7.030;2023-04-02T09:54:53;8.40;99.90
51655;DHT22;37732;53.106;7.030;2023-04-02T09:57:29;8.40;99.90
51655;DHT22;37732;53.106;7.030;2023-04-02T10:02:43;8.60;99.90
51655;DHT22;37732;53.106;7.030;2023-04-02T10:05:20;8.50;99.90
51655;DHT22;37732;53.106;7.030;2023-04-02T10:07:49;8.50;99.90
51655;DHT22;37732;53.106;7.030;2023-04-02T10:10:43;8.50;99.90
51655;DHT22;37732;53.106;7.030;2023-04-02T10:16:28;8.50;99.90
51655;DHT22;37732;53.106;7.030;2023-04-02T10:21:22;8.90;99.90
51655;DHT22;37732;53.106;7.030;2023-04-02T10:23:49;9.00;99.90
51655;DHT22;37732;53.106;7.030;2023-04-02T10:34:22;9.30;99.90
51655;DHT22;37732;53.106;7.030;2023-04-02T10:36:55;9.30;99.90
51655;DHT22;37732;53.106;7.030;2023-04-02T10:39:35;9.30;99.90
51655;DHT22;37732;53.106;7.030;2023-04-02T10:42:13;9.00;99.90
51655;DHT22;37732;53.106;7.030;2023-04-02T10:45:03;8.90;99.90
51655;DHT22;37732;53.106;7.030;2023-04-02T10:47:41;9.10;99.90
51655;DHT22;37732;53.106;7.030;2023-04-02T10:52:56;9.30;99.90
51655;DHT22;37732;53.106;7.030;2023-04-02T10:55:28;9.40;99.90
51655;DHT22;37732;53.106;7.030;2023-04-02T10:57:56;9.70;99.90
51655;DHT22;37732;53.106;7.030;2023-04-02T11:00:27;9.70;99.90
51655;DHT22;37732;53.106;7.030;2023-04-02T11:03:05;9.80;99.90
51655;DHT22;37732;53.106;7.030;2023-04-02T11:05:42;9.90;99.90
51655;DHT22;37732;53.106;7.030;2023-04-02T11:08:46;9.90;99.90
51655;DHT22;37732;53.106;7.030;2023-04-02T11:11:15;9.70;99.90
51655;DHT22;37732;53.106;7.030;2023-04-02T11:16:11;9.70;99.90
51655;DHT22;37732;53.106;7.030;2023-04-02T11:18:40;9.70;99.90
51655;DHT22;37732;53.106;7.030;2023-04-02T11:24:34;9.70;99.90
51655;DHT22;37732;53.106;7.030;2023-04-02T11:27:14;9.90;99.90
51655;DHT22;37732;53.106;7.030;2023-04-02T11:42:36;10.80;99.90
51655;DHT22;37732;53.106;7.030;2023-04-02T11:53:04;11.00;99.90
51655;DHT22;37732;53.106;7.030;2023-04-02T11:55:36;10.90;99.90
51655;DHT22;37732;53.106;7.030;2023-04-02T12:11:45;11.20;99.90
51655;DHT22;37732;53.106;7.030;2023-04-02T12:16:58;11.00;99.90
51655;DHT22;37732;53.106;7.030;2023-04-02T12:19:24;10.90;99.90
51655;DHT22;37732;53.106;7.030;2023-04-02T12:21:51;11.00;99.90
51655;DHT22;37732;53.106;7.030;2023-04-02T12:24:22;10.90;99.90
51655;DHT22;37732;53.106;7.030;2023-04-02T12:26:48;11.00;99.90
51655;DHT22;37732;53.106;7.030;2023-04-02T12:31:56;10.80;99.90
51655;DHT22;37732;53.106;7.030;2023-04-02T12:34:26;10.80;99.90
51655;DHT22;37732;53.106;7.030;2023-04-02T12:37:03;10.80;99.90
51655;DHT22;37732;53.106;7.030;2023-04-02T12:39:31;10.80;99.90
51655;DHT22;37732;53.106;7.030;2023-04-02T12:41:57;10.70;99.90
51655;DHT22;37732;53.106;7.030;2023-04-02T12:44:25;10.80;99.90
51655;DHT22;37732;53.106;7.030;2023-04-02T12:46:52;10.90;99.90
51655;DHT22;37732;53.106;7.030;2023-04-02T12:51:53;10.90;99.90
51655;DHT22;37732;53.106;7.030;2023-04-02T12:54:19;10.90;99.90
51655;DHT22;37732;53.106;7.030;2023-04-02T12:56:46;10.70;99.90
51655;DHT22;37732;53.106;7.030;2023-04-02T13:02:01;10.60;99.90
51655;DHT22;37732;53.106;7.030;2023-04-02T13:04:28;10.70;99.90
51655;DHT22;37732;53.106;7.030;2023-04-02T13:06:54;10.70;99.90
51655;DHT22;37732;53.106;7.030;2023-04-02T13:10:02;10.70;99.90
51655;DHT22;37732;53.106;7.030;2023-04-02T13:12:32;10.70;99.80
51655;DHT22;37732;53.106;7.030;2023-04-02T13:15:01;10.70;99.60
51655;DHT22;37732;53.106;7.030;2023-04-02T13:20:35;10.70;98.90
51655;DHT22;37732;53.106;7.030;2023-04-02T13:25:57;10.60;99.90
51655;DHT22;37732;53.106;7.030;2023-04-02T13:28:23;10.70;99.90
51655;DHT22;37732;53.106;7.030;2023-04-02T13:30:49;10.70;99.90
51655;DHT22;37732;53.106;7.030;2023-04-02T13:33:15;10.70;99.10
51655;DHT22;37732;53.106;7.030;2023-04-02T13:35:42;10.70;98.90
51655;DHT22;37732;53.106;7.030;2023-04-02T13:38:09;10.70;98.60
51655;DHT22;37732;53.106;7.030;2023-04-02T13:40:35;10.70;98.30
51655;DHT22;37732;53.106;7.030;2023-04-02T13:43:05;10.80;98.40
51655;DHT22;37732;53.106;7.030;2023-04-02T13:45:36;10.70;98.20
51655;DHT22;37732;53.106;7.030;2023-04-02T13:48:02;10.70;98.40
51655;DHT22;37732;53.106;7.030;2023-04-02T13:50:30;10.70;99.60
51655;DHT22;37732;53.106;7.030;2023-04-02T13:52:59;10.70;98.90
51655;DHT22;37732;53.106;7.030;2023-04-02T13:55:28;10.90;99.00
51655;DHT22;37732;53.106;7.030;2023-04-02T13:57:55;11.00;99.20
51655;DHT22;37732;53.106;7.030;2023-04-02T14:00:22;11.20;99.50
51655;DHT22;37732;53.106;7.030;2023-04-02T14:02:55;11.30;98.70
51655;DHT22;37732;53.106;7.030;2023-04-02T14:24:27;11.10;99.00
51655;DHT22;37732;53.106;7.030;2023-04-02T14:32:27;11.10;99.30
51655;DHT22;37732;53.106;7.030;2023-04-02T14:34:58;11.10;98.70
51655;DHT22;37732;53.106;7.030;2023-04-02T14:43:07;11.10;98.90
51655;DHT22;37732;53.106;7.030;2023-04-02T14:50:51;10.90;97.90
51655;DHT22;37732;53.106;7.030;2023-04-02T14:53:32;10.90;97.60
51655;DHT22;37732;53.106;7.030;2023-04-02T14:56:04;10.90;98.50
51655;DHT22;37732;53.106;7.030;2023-04-02T14:58:39;10.90;98.50
51655;DHT22;37732;53.106;7.030;2023-04-02T15:01:13;10.90;96.90
51655;DHT22;37732;53.106;7.030;2023-04-02T15:04:02;10.90;97.60
51655;DHT22;37732;53.106;7.030;2023-04-02T15:06:39;10.90;96.30
51655;DHT22;37732;53.106;7.030;2023-04-02T15:11:45;11.00;94.70
51655;DHT22;37732;53.106;7.030;2023-04-02T15:14:26;11.00;94.60
51655;DHT22;37732;53.106;7.030;2023-04-02T15:16:54;11.00;95.80
51655;DHT22;37732;53.106;7.030;2023-04-02T15:19:20;11.00;96.60
51655;DHT22;37732;53.106;7.030;2023-04-02T15:27:57;11.00;97.40
51655;DHT22;37732;53.106;7.030;2023-04-02T15:30:44;10.90;96.90
51655;DHT22;37732;53.106;7.030;2023-04-02T15:33:37;10.80;99.10
51655;DHT22;37732;53.106;7.030;2023-04-02T15:42:17;10.70;97.10
51655;DHT22;37732;53.106;7.030;2023-04-02T15:58:59;10.20;96.80
51655;DHT22;37732;53.106;7.030;2023-04-02T16:10:25;9.70;98.10
51655;DHT22;37732;53.106;7.030;2023-04-02T16:12:55;9.60;98.40
51655;DHT22;37732;53.106;7.030;2023-04-02T16:15:33;9.50;99.10
51655;DHT22;37732;53.106;7.030;2023-04-02T16:20:54;9.30;98.60
51655;DHT22;37732;53.106;7.030;2023-04-02T16:23:33;9.30;99.60
51655;DHT22;37732;53.106;7.030;2023-04-02T16:26:24;9.20;99.00
51655;DHT22;37732;53.106;7.030;2023-04-02T16:39:38;8.70;99.60
51655;DHT22;37732;53.106;7.030;2023-04-02T16:45:12;8.60;99.40
51655;DHT22;37732;53.106;7.030;2023-04-02T16:54:00;8.40;99.90
51655;DHT22;37732;53.106;7.030;2023-04-02T16:59:34;8.20;99.90
51655;DHT22;37732;53.106;7.030;2023-04-02T17:07:55;8.10;99.90
51655;DHT22;37732;53.106;7.030;2023-04-02T17:10:29;8.00;99.80
51655;DHT22;37732;53.106;7.030;2023-04-02T17:16:10;7.90;99.70
51655;DHT22;37732;53.106;7.030;2023-04-02T17:18:40;8.50;99.90
51655;DHT22;37732;53.106;7.030;2023-04-02T17:21:13;7.70;99.90
51655;DHT22;37732;53.106;7.030;2023-04-02T17:24:01;7.70;99.90
51655;DHT22;37732;53.106;7.030;2023-04-02T17:26:33;7.60;99.90
51655;DHT22;37732;53.106;7.030;2023-04-02T17:29:07;7.50;99.90
51655;DHT22;37732;53.106;7.030;2023-04-02T17:31:33;7.50;99.90
51655;DHT22;37732;53.106;7.030;2023-04-02T17:34:12;7.40;99.90
51655;DHT22;37732;53.106;7.030;2023-04-02T17:41:48;7.20;99.90
51655;DHT22;37732;53.106;7.030;2023-04-02T17:47:27;7.00;99.90
51655;DHT22;37732;53.106;7.030;2023-04-02T17:52:54;6.80;99.90
51655;DHT22;37732;53.106;7.030;2023-04-02T18:07:20;6.50;99.90
51655;DHT22;37732;53.106;7.030;2023-04-02T18:12:56;6.20;99.90
51655;DHT22;37732;53.106;7.030;2023-04-02T18:15:37;6.20;99.90
51655;DHT22;37732;53.106;7.030;2023-04-02T18:31:54;5.70;99.90
51655;DHT22;37732;53.106;7.030;2023-04-02T18:43:01;5.50;99.90
51655;DHT22;37732;53.106;7.030;2023-04-02T18:48:13;5.40;99.90
51655;DHT22;37732;53.106;7.030;2023-04-02T18:50:45;5.40;99.90
51655;DHT22;37732;53.106;7.030;2023-04-02T18:53:23;5.30;99.90
51655;DHT22;37732;53.106;7.030;2023-04-02T18:58:34;5.20;99.90
51655;DHT22;37732;53.106;7.030;2023-04-02T19:01:05;5.20;99.90
51655;DHT22;37732;53.106;7.030;2023-04-02T19:03:40;5.10;99.90
51655;DHT22;37732;53.106;7.030;2023-04-02T19:06:15;5.10;99.90
51655;DHT22;37732;53.106;7.030;2023-04-02T19:08:59;5.00;99.90
51655;DHT22;37732;53.106;7.030;2023-04-02T19:11:26;5.00;99.90
51655;DHT22;37732;53.106;7.030;2023-04-02T19:14:01;5.00;99.90
51655;DHT22;37732;53.106;7.030;2023-04-02T19:19:22;4.90;99.90
51655;DHT22;37732;53.106;7.030;2023-04-02T19:43:21;4.60;99.90
51655;DHT22;37732;53.106;7.030;2023-04-02T19:45:47;4.60;99.90
51655;DHT22;37732;53.106;7.030;2023-04-02T19:48:17;4.50;99.90
51655;DHT22;37732;53.106;7.030;2023-04-02T19:50:45;4.50;99.90
51655;DHT22;37732;53.106;7.030;2023-04-02T19:53:11;4.50;99.90
51655;DHT22;37732;53.106;7.030;2023-04-02T19:55:37;4.40;99.90
51655;DHT22;37732;53.106;7.030;2023-04-02T19:58:03;4.40;99.90
51655;DHT22;37732;53.106;7.030;2023-04-02T20:00:29;4.40;99.90
51655;DHT22;37732;53.106;7.030;2023-04-02T20:02:55;4.30;99.90
51655;DHT22;37732;53.106;7.030;2023-04-02T20:05:20;4.30;99.90
51655;DHT22;37732;53.106;7.030;2023-04-02T20:07:46;4.20;99.90
51655;DHT22;37732;53.106;7.030;2023-04-02T20:10:12;4.20;99.90
51655;DHT22;37732;53.106;7.030;2023-04-02T20:12:38;4.20;99.90
51655;DHT22;37732;53.106;7.030;2023-04-02T20:15:04;4.10;99.90
51655;DHT22;37732;53.106;7.030;2023-04-02T20:17:30;4.00;99.90
51655;DHT22;37732;53.106;7.030;2023-04-02T20:19:56;4.00;99.90
51655;DHT22;37732;53.106;7.030;2023-04-02T20:22:22;4.00;99.90
51655;DHT22;37732;53.106;7.030;2023-04-02T20:24:48;4.00;99.90
51655;DHT22;37732;53.106;7.030;2023-04-02T20:27:14;3.70;99.90
51655;DHT22;37732;53.106;7.030;2023-04-02T20:29:39;3.70;99.90
51655;DHT22;37732;53.106;7.030;2023-04-02T20:32:08;3.90;99.90
51655;DHT22;37732;53.106;7.030;2023-04-02T20:34:34;3.70;99.90
51655;DHT22;37732;53.106;7.030;2023-04-02T20:37:00;3.60;99.90
51655;DHT22;37732;53.106;7.030;2023-04-02T20:39:26;3.60;99.90
51655;DHT22;37732;53.106;7.030;2023-04-02T20:41:53;3.50;99.90
51655;DHT22;37732;53.106;7.030;2023-04-02T20:44:18;3.50;99.90
51655;DHT22;37732;53.106;7.030;2023-04-02T20:46:44;3.60;99.90
51655;DHT22;37732;53.106;7.030;2023-04-02T20:49:10;3.40;99.90
51655;DHT22;37732;53.106;7.030;2023-04-02T20:51:36;3.30;99.90
51655;DHT22;37732;53.106;7.030;2023-04-02T20:54:02;3.30;99.90
51655;DHT22;37732;53.106;7.030;2023-04-02T20:56:28;3.30;99.90
51655;DHT22;37732;53.106;7.030;2023-04-02T20:58:54;3.20;99.90
51655;DHT22;37732;53.106;7.030;2023-04-02T21:01:25;3.20;99.90
51655;DHT22;37732;53.106;7.030;2023-04-02T21:04:02;3.20;99.90
51655;DHT22;37732;53.106;7.030;2023-04-02T21:06:30;3.20;99.90
51655;DHT22;37732;53.106;7.030;2023-04-02T21:08:56;3.10;99.90
51655;DHT22;37732;53.106;7.030;2023-04-02T21:11:22;3.10;99.90
51655;DHT22;37732;53.106;7.030;2023-04-02T21:13:49;3.10;99.90
51655;DHT22;37732;53.106;7.030;2023-04-02T21:16:21;3.10;99.90
51655;DHT22;37732;53.106;7.030;2023-04-02T21:18:50;3.10;99.90
51655;DHT22;37732;53.106;7.030;2023-04-02T21:21:16;3.10;99.90
51655;DHT22;37732;53.106;7.030;2023-04-02T21:23:43;3.00;99.90
51655;DHT22;37732;53.106;7.030;2023-04-02T21:26:15;3.00;99.90
51655;DHT22;37732;53.106;7.030;2023-04-02T21:28:41;3.00;99.90
51655;DHT22;37732;53.106;7.030;2023-04-02T21:31:12;3.00;99.90
51655;DHT22;37732;53.106;7.030;2023-04-02T21:33:45;2.90;99.90
51655;DHT22;37732;53.106;7.030;2023-04-02T21:36:16;2.90;99.90
51655;DHT22;37732;53.106;7.030;2023-04-02T21:38:51;2.90;99.90
51655;DHT22;37732;53.106;7.030;2023-04-02T21:41:23;2.90;99.90
51655;DHT22;37732;53.106;7.030;2023-04-02T21:43:49;2.90;99.90
51655;DHT22;37732;53.106;7.030;2023-04-02T21:46:17;2.90;99.90
51655;DHT22;37732;53.106;7.030;2023-04-02T21:48:43;2.90;99.90
51655;DHT22;37732;53.106;7.030;2023-04-02T21:51:15;2.80;99.90
51655;DHT22;37732;53.106;7.030;2023-04-02T21:53:42;2.90;99.90
51655;DHT22;37732;53.106;7.030;2023-04-02T21:56:13;2.80;99.90
51655;DHT22;37732;53.106;7.030;2023-04-02T21:58:39;2.90;99.90
51655;DHT22;37732;53.106;7.030;2023-04-02T22:01:05;2.80;99.90
51655;DHT22;37732;53.106;7.030;2023-04-02T22:03:31;2.70;99.90
51655;DHT22;37732;53.106;7.030;2023-04-02T22:06:08;2.70;99.90
51655;DHT22;37732;53.106;7.030;2023-04-02T22:08:38;2.70;99.90
51655;DHT22;37732;53.106;7.030;2023-04-02T22:11:07;2.80;99.90
51655;DHT22;37732;53.106;7.030;2023-04-02T22:13:37;2.70;99.90
51655;DHT22;37732;53.106;7.030;2023-04-02T22:16:05;2.60;99.90
51655;DHT22;37732;53.106;7.030;2023-04-02T22:18:32;2.60;99.90
51655;DHT22;37732;53.106;7.030;2023-04-02T22:20:58;2.70;99.90
51655;DHT22;37732;53.106;7.030;2023-04-02T22:23:26;2.50;99.90
51655;DHT22;37732;53.106;7.030;2023-04-02T22:25:53;2.50;99.90
51655;DHT22;37732;53.106;7.030;2023-04-02T22:28:20;2.90;99.90
51655;DHT22;37732;53.106;7.030;2023-04-02T22:30:46;3.20;99.90
51655;DHT22;37732;53.106;7.030;2023-04-02T22:33:12;3.10;99.90
51655;DHT22;37732;53.106;7.030;2023-04-02T22:35:38;2.30;99.90
51655;DHT22;37732;53.106;7.030;2023-04-02T22:38:04;2.70;99.90
51655;DHT22;37732;53.106;7.030;2023-04-02T22:40:30;2.30;99.90
51655;DHT22;37732;53.106;7.030;2023-04-02T22:42:55;2.20;99.90
51655;DHT22;37732;53.106;7.030;2023-04-02T22:45:21;2.20;99.90
51655;DHT22;37732;53.106;7.030;2023-04-02T22:47:47;2.10;99.90
51655;DHT22;37732;53.106;7.030;2023-04-02T22:50:17;2.10;99.90
51655;DHT22;37732;53.106;7.030;2023-04-02T22:52:44;2.20;99.90
51655;DHT22;37732;53.106;7.030;2023-04-02T22:55:11;2.00;99.90
51655;DHT22;37732;53.106;7.030;2023-04-02T22:57:40;2.20;99.90
51655;DHT22;37732;53.106;7.030;2023-04-02T23:00:08;1.90;99.90
51655;DHT22;37732;53.106;7.030;2023-04-02T23:02:36;1.80;99.90
51655;DHT22;37732;53.106;7.030;2023-04-02T23:05:02;1.80;99.90
51655;DHT22;37732;53.106;7.030;2023-04-02T23:07:28;1.80;99.90
51655;DHT22;37732;53.106;7.030;2023-04-02T23:09:54;1.80;99.90
51655;DHT22;37732;53.106;7.030;2023-04-02T23:12:19;1.90;99.90
51655;DHT22;37732;53.106;7.030;2023-04-02T23:14:46;1.70;99.90
51655;DHT22;37732;53.106;7.030;2023-04-02T23:17:11;1.80;99.90
51655;DHT22;37732;53.106;7.030;2023-04-02T23:19:37;1.80;99.90
51655;DHT22;37732;53.106;7.030;2023-04-02T23:22:03;2.00;99.90
51655;DHT22;37732;53.106;7.030;2023-04-02T23:24:28;2.10;99.90
51655;DHT22;37732;53.106;7.030;2023-04-02T23:26:54;1.80;99.90
51655;DHT22;37732;53.106;7.030;2023-04-02T23:29:20;2.40;99.90
51655;DHT22;37732;53.106;7.030;2023-04-02T23:31:46;1.80;99.90
51655;DHT22;37732;53.106;7.030;2023-04-02T23:34:11;1.80;99.90
51655;DHT22;37732;53.106;7.030;2023-04-02T23:36:37;1.70;99.90
51655;DHT22;37732;53.106;7.030;2023-04-02T23:39:09;1.70;99.90
51655;DHT22;37732;53.106;7.030;2023-04-02T23:41:37;2.70;99.90
51655;DHT22;37732;53.106;7.030;2023-04-02T23:44:03;1.60;99.90
51655;DHT22;37732;53.106;7.030;2023-04-02T23:46:30;1.60;99.90
51655;DHT22;37732;53.106;7.030;2023-04-02T23:48:56;2.60;99.90
51655;DHT22;37732;53.106;7.030;2023-04-02T23:51:23;1.60;99.90
51655;DHT22;37732;53.106;7.030;2023-04-02T23:53:49;1.60;99.90
51655;DHT22;37732;53.106;7.030;2023-04-02T23:56:16;1.50;99.90
51655;DHT22;37732;53.106;7.030;2023-04-02T23:58:42;1.50;99.90
